createdAt,value
2019-03-22T00:02:32.837Z,69.60
2019-03-22T00:05:36.161Z,69.56
2019-03-22T00:08:39.481Z,69.21
2019-03-22T00:11:42.856Z,69.32
2019-03-22T00:14:46.847Z,69.14
2019-03-22T00:17:50.189Z,69.07
2019-03-22T00:20:53.469Z,69.29
2019-03-22T00:23:56.771Z,69.77
2019-03-22T00:27:00.182Z,70.36
2019-03-22T00:30:06.602Z,69.86
2019-03-22T00:33:09.930Z,69.81
2019-03-22T00:36:13.231Z,69.94
2019-03-22T00:39:16.565Z,70.18
2019-03-22T00:42:19.865Z,70.58
2019-03-22T00:45:23.223Z,70.74
2019-03-22T00:48:26.571Z,71.00
2019-03-22T00:51:29.877Z,71.43
2019-03-22T00:54:33.200Z,71.58
2019-03-22T00:57:36.565Z,70.86
2019-03-22T01:00:39.861Z,70.43
2019-03-22T01:03:43.178Z,70.50
2019-03-22T01:06:46.482Z,70.82
2019-03-22T01:09:49.799Z,70.71
2019-03-22T01:12:53.119Z,71.23
2019-03-22T01:15:56.434Z,71.83
2019-03-22T01:18:59.721Z,71.69
2019-03-22T01:22:03.039Z,71.81
2019-03-22T01:25:07.003Z,72.80
2019-03-22T01:28:10.325Z,73.66
2019-03-22T01:31:13.641Z,72.98
2019-03-22T01:34:17.113Z,72.77
2019-03-22T01:37:20.437Z,72.91
2019-03-22T01:40:23.735Z,72.54
2019-03-22T01:43:27.042Z,73.66
2019-03-22T01:46:30.363Z,73.33
2019-03-22T01:49:33.677Z,73.39
2019-03-22T01:52:37.424Z,73.59
2019-03-22T01:55:40.735Z,73.06
2019-03-22T01:58:44.072Z,73.33
2019-03-22T02:01:47.387Z,73.42
2019-03-22T02:04:50.763Z,73.25
2019-03-22T02:07:54.030Z,73.36
2019-03-22T02:10:57.311Z,73.29
2019-03-22T02:14:00.902Z,73.71
2019-03-22T02:17:04.239Z,74.05
2019-03-22T02:20:08.478Z,74.30
2019-03-22T02:23:11.791Z,73.87
2019-03-22T02:26:15.108Z,73.96
2019-03-22T02:29:18.422Z,73.78
2019-03-22T02:32:21.754Z,74.14
2019-03-22T02:35:28.860Z,74.91
2019-03-22T02:38:30.091Z,76.09
2019-03-22T02:41:33.381Z,76.38
2019-03-22T02:44:36.707Z,76.25
2019-03-22T02:47:40.042Z,76.49
2019-03-22T02:50:43.339Z,76.90
2019-03-22T02:53:46.662Z,77.62
2019-03-22T02:56:50.139Z,77.06
2019-03-22T02:59:53.535Z,77.76
2019-03-22T03:02:56.853Z,77.72
2019-03-22T03:06:00.178Z,76.67
2019-03-22T03:09:04.620Z,76.43
2019-03-22T03:12:07.953Z,77.11
2019-03-22T03:15:15.633Z,77.54
2019-03-22T03:18:18.960Z,76.60
2019-03-22T03:21:22.279Z,77.68
2019-03-22T03:24:25.616Z,77.33
2019-03-22T03:27:28.928Z,77.65
2019-03-22T03:30:32.257Z,77.27
2019-03-22T03:33:35.567Z,77.41
2019-03-22T03:36:38.873Z,78.44
2019-03-22T03:39:42.196Z,78.03
2019-03-22T03:42:45.593Z,79.67
2019-03-22T03:45:48.895Z,78.79
2019-03-22T03:48:52.216Z,79.29
2019-03-22T03:51:55.563Z,78.12
2019-03-22T03:54:58.862Z,78.46
2019-03-22T03:58:02.186Z,79.13
2019-03-22T04:01:05.490Z,80.07
2019-03-22T04:04:08.830Z,78.80
2019-03-22T04:07:12.171Z,77.98
2019-03-22T04:10:15.472Z,78.18
2019-03-22T04:13:18.801Z,78.05
2019-03-22T04:16:22.121Z,77.05
2019-03-22T04:19:25.468Z,77.22
2019-03-22T04:22:28.780Z,77.35
2019-03-22T04:25:32.087Z,77.45
2019-03-22T04:28:35.415Z,79.19
2019-03-22T04:31:38.725Z,78.47
2019-03-22T04:34:42.065Z,79.53
2019-03-22T04:37:45.397Z,79.40
2019-03-22T04:40:48.711Z,79.01
2019-03-22T04:43:52.023Z,79.05
2019-03-22T04:46:55.339Z,79.49
2019-03-22T04:49:58.653Z,79.05
2019-03-22T04:53:01.972Z,79.75
2019-03-22T04:56:06.325Z,79.44
2019-03-22T04:59:18.893Z,79.11
2019-03-22T05:02:15.914Z,78.76
2019-03-22T05:05:19.231Z,80.59
2019-03-22T05:08:22.549Z,81.04
2019-03-22T05:11:25.853Z,80.18
2019-03-22T05:14:29.355Z,80.46
2019-03-22T05:17:32.688Z,80.98
2019-03-22T05:20:36.007Z,80.16
2019-03-22T05:23:39.332Z,79.63
2019-03-22T05:26:42.637Z,79.39
2019-03-22T05:29:45.984Z,78.12
2019-03-22T05:32:49.309Z,76.27
2019-03-22T05:35:52.631Z,75.36
2019-03-22T05:38:55.975Z,73.95
2019-03-22T05:41:59.280Z,74.98
2019-03-22T05:45:02.641Z,72.52
2019-03-22T05:48:05.959Z,71.19
2019-03-22T05:51:09.303Z,70.65
2019-03-22T05:54:12.609Z,66.30
2019-03-22T05:57:15.924Z,63.55
2019-03-22T06:00:19.282Z,63.14
2019-03-22T06:03:22.625Z,65.23
2019-03-22T06:06:25.947Z,64.88
2019-03-22T06:09:29.270Z,60.13
2019-03-22T06:12:32.597Z,56.15
2019-03-22T06:15:35.925Z,51.99
2019-03-22T06:18:39.318Z,51.59
2019-03-22T06:21:42.661Z,51.34
2019-03-22T06:24:45.982Z,52.32
2019-03-22T06:27:49.284Z,51.12
2019-03-22T06:30:52.688Z,49.07
2019-03-22T06:33:55.998Z,49.39
2019-03-22T06:36:59.313Z,53.64
2019-03-22T06:40:02.655Z,48.92
2019-03-22T06:43:05.961Z,48.65
2019-03-22T06:46:09.296Z,49.05
2019-03-22T06:49:12.607Z,50.38
2019-03-22T06:52:16.010Z,49.72
2019-03-22T06:55:19.410Z,49.10
2019-03-22T06:58:24.197Z,49.71
2019-03-22T07:01:27.800Z,47.89
2019-03-22T07:04:31.182Z,45.88
2019-03-22T07:07:34.585Z,46.17
2019-03-22T07:10:37.992Z,44.02
2019-03-22T07:13:41.369Z,43.03
2019-03-22T07:16:44.764Z,41.53
2019-03-22T07:19:48.160Z,40.59
2019-03-22T07:22:51.593Z,40.88
2019-03-22T07:25:55.001Z,41.29
2019-03-22T07:28:58.397Z,42.68
2019-03-22T07:32:01.810Z,43.26
2019-03-22T07:35:05.677Z,41.91
2019-03-22T07:38:09.096Z,41.53
2019-03-22T07:41:12.569Z,42.51
2019-03-22T07:44:15.958Z,44.03
2019-03-22T07:47:19.364Z,43.85
2019-03-22T07:50:22.766Z,41.74
2019-03-22T07:53:26.174Z,40.52
2019-03-22T07:56:29.567Z,41.25
2019-03-22T07:59:32.950Z,43.56
2019-03-22T08:02:36.351Z,42.73
2019-03-22T08:05:50.997Z,46.08
2019-03-22T08:08:44.896Z,45.50
2019-03-22T08:11:48.303Z,41.05
2019-03-22T08:14:51.799Z,40.21
2019-03-22T08:17:57.091Z,40.74
2019-03-22T08:21:00.293Z,40.98
2019-03-22T08:24:03.676Z,40.71
2019-03-22T08:27:07.102Z,38.19
2019-03-22T08:30:10.505Z,38.70
2019-03-22T08:33:13.875Z,38.88
2019-03-22T08:36:17.268Z,38.87
2019-03-22T08:39:20.668Z,35.35
2019-03-22T08:42:24.070Z,33.68
2019-03-22T08:45:27.458Z,33.40
2019-03-22T08:48:30.896Z,27.52
2019-03-22T08:51:34.247Z,27.43
2019-03-22T08:54:38.419Z,26.64
2019-03-22T08:57:41.922Z,24.34
2019-03-22T09:00:56.761Z,24.62
2019-03-22T09:03:50.451Z,26.78
2019-03-22T09:06:53.863Z,26.18
2019-03-22T09:09:57.290Z,26.39
2019-03-22T09:13:00.662Z,24.99
2019-03-22T09:16:04.109Z,26.77
2019-03-22T09:19:07.473Z,23.42
2019-03-22T09:22:10.855Z,22.55
2019-03-22T09:25:14.254Z,20.77
2019-03-22T09:28:17.654Z,21.44
2019-03-22T09:31:21.080Z,23.81
2019-03-22T09:34:33.497Z,22.38
2019-03-22T09:37:29.563Z,24.77
2019-03-22T09:40:32.959Z,25.74
2019-03-22T09:43:36.654Z,27.52
2019-03-22T09:46:40.011Z,27.68
2019-03-22T09:49:43.538Z,27.22
2019-03-22T09:52:46.952Z,24.86
2019-03-22T09:55:50.341Z,24.29
2019-03-22T09:58:53.727Z,24.11
2019-03-22T10:01:57.163Z,26.79
2019-03-22T10:05:00.524Z,27.87
2019-03-22T10:08:03.925Z,27.98
2019-03-22T10:11:07.355Z,29.31
2019-03-22T10:14:10.755Z,30.62
2019-03-22T10:17:14.123Z,31.84
2019-03-22T10:20:17.594Z,33.29
2019-03-22T10:23:22.399Z,33.56
2019-03-22T10:26:26.022Z,33.13
2019-03-22T10:29:29.423Z,33.73
2019-03-22T10:32:32.792Z,34.75
2019-03-22T10:35:36.208Z,34.94
2019-03-22T10:38:39.644Z,35.21
2019-03-22T10:41:43.012Z,34.82
2019-03-22T10:44:46.423Z,34.16
2019-03-22T10:47:49.815Z,33.95
2019-03-22T10:50:53.216Z,35.85
2019-03-22T10:53:56.667Z,33.99
2019-03-22T10:57:00.039Z,35.23
2019-03-22T11:00:08.467Z,33.68
2019-03-22T11:03:11.845Z,33.99
2019-03-22T11:06:25.499Z,35.69
2019-03-22T11:09:20.430Z,34.56
2019-03-22T11:12:23.826Z,34.57
2019-03-22T11:15:27.320Z,35.46
2019-03-22T11:18:37.318Z,34.89
2019-03-22T11:21:35.837Z,36.38
2019-03-22T11:24:39.229Z,36.80
2019-03-22T11:27:42.648Z,37.39
2019-03-22T11:30:46.041Z,37.72
2019-03-22T11:33:49.431Z,37.93
2019-03-22T11:36:52.843Z,38.23
2019-03-22T11:39:56.235Z,39.80
2019-03-22T11:43:08.274Z,38.72
2019-03-22T11:46:04.746Z,38.16
2019-03-22T11:49:08.143Z,38.34
2019-03-22T11:52:11.579Z,37.96
2019-03-22T11:55:15.058Z,37.96
2019-03-22T11:58:18.472Z,37.80
2019-03-22T12:01:22.626Z,38.68
2019-03-22T12:04:26.251Z,38.06
2019-03-22T12:07:29.657Z,37.84
2019-03-22T12:10:33.037Z,38.60
2019-03-22T12:13:36.441Z,38.91
2019-03-22T12:16:39.832Z,39.45
2019-03-22T12:19:43.212Z,39.31
2019-03-22T12:22:46.628Z,39.73
2019-03-22T12:25:50.043Z,39.98
2019-03-22T12:28:53.428Z,40.44
2019-03-22T12:31:56.824Z,39.98
2019-03-22T12:35:00.323Z,40.23
2019-03-22T12:38:03.713Z,39.83
2019-03-22T12:41:07.106Z,39.93
2019-03-22T12:44:10.493Z,40.05
2019-03-22T12:47:13.893Z,39.69
2019-03-22T12:50:17.275Z,40.73
2019-03-22T12:53:20.684Z,39.87
2019-03-22T12:56:24.070Z,39.55
2019-03-22T12:59:27.507Z,40.65
2019-03-22T13:02:30.929Z,40.73
2019-03-22T13:05:34.312Z,41.16
2019-03-22T13:08:37.732Z,41.18
2019-03-22T13:11:41.131Z,40.06
2019-03-22T13:14:44.540Z,40.43
2019-03-22T13:17:47.941Z,40.03
2019-03-22T13:20:51.322Z,41.31
2019-03-22T13:23:54.752Z,41.93
2019-03-22T13:26:58.148Z,42.47
2019-03-22T13:30:01.549Z,41.74
2019-03-22T13:33:05.226Z,42.17
2019-03-22T13:36:08.618Z,42.54
2019-03-22T13:39:12.026Z,42.61
2019-03-22T13:42:15.422Z,42.50
2019-03-22T13:45:18.840Z,43.22
2019-03-22T13:48:22.252Z,43.46
2019-03-22T13:51:25.645Z,43.95
2019-03-22T13:54:29.045Z,44.12
2019-03-22T13:57:32.450Z,44.62
2019-03-22T14:00:35.854Z,44.59
2019-03-22T14:03:39.259Z,44.79
2019-03-22T14:06:42.670Z,45.48
2019-03-22T14:09:46.075Z,45.11
2019-03-22T14:12:49.525Z,45.91
2019-03-22T14:15:52.973Z,46.59
2019-03-22T14:18:56.413Z,46.86
2019-03-22T14:21:59.792Z,46.31
2019-03-22T14:25:03.565Z,46.76
2019-03-22T14:28:06.963Z,46.59
2019-03-22T14:31:10.389Z,46.74
2019-03-22T14:34:13.811Z,46.35
2019-03-22T14:37:17.281Z,46.10
2019-03-22T14:40:21.055Z,46.47
2019-03-22T14:43:24.437Z,45.51
2019-03-22T14:46:27.844Z,45.77
2019-03-22T14:49:31.249Z,45.81
2019-03-22T14:52:34.645Z,45.89
2019-03-22T14:55:38.048Z,45.26
2019-03-22T14:58:41.449Z,45.01
2019-03-22T15:01:44.846Z,45.98
2019-03-22T15:04:48.243Z,46.44
2019-03-22T15:07:51.619Z,47.30
2019-03-22T15:10:55.077Z,47.11
2019-03-22T15:14:02.951Z,47.05
2019-03-22T15:17:24.653Z,46.73
2019-03-22T15:20:29.612Z,45.69
2019-03-22T15:23:40.770Z,46.00
2019-03-22T15:26:58.197Z,46.32
2019-03-22T15:30:04.611Z,46.56
2019-03-22T15:33:34.144Z,46.62
2019-03-22T15:36:50.557Z,46.86
2019-03-22T15:40:03.350Z,47.48
2019-03-22T15:43:06.797Z,48.54
2019-03-22T15:46:10.193Z,48.22
2019-03-22T15:49:13.807Z,49.21
2019-03-22T15:52:17.210Z,50.36
2019-03-22T15:55:20.596Z,49.94
2019-03-22T15:58:23.996Z,50.74
2019-03-22T16:01:27.380Z,51.12
2019-03-22T16:04:30.791Z,51.21
2019-03-22T16:07:34.183Z,51.28
2019-03-22T16:10:37.580Z,50.78
2019-03-22T16:13:40.979Z,51.01
2019-03-22T16:16:44.371Z,51.58
2019-03-22T16:19:47.761Z,51.90
2019-03-22T16:22:51.161Z,51.81
2019-03-22T16:25:54.558Z,52.09
2019-03-22T16:28:57.972Z,52.55
2019-03-22T16:32:01.366Z,52.66
2019-03-22T16:35:06.500Z,52.88
2019-03-22T16:38:09.911Z,52.75
2019-03-22T16:41:13.298Z,52.76
2019-03-22T16:44:16.708Z,52.93
2019-03-22T16:47:20.114Z,52.71
2019-03-22T16:50:24.549Z,52.44
2019-03-22T16:53:27.948Z,52.14
2019-03-22T16:56:31.330Z,52.21
2019-03-22T16:59:34.736Z,52.46
2019-03-22T17:02:38.168Z,52.59
2019-03-22T17:05:41.552Z,52.86
2019-03-22T17:08:45.006Z,53.44
2019-03-22T17:11:48.405Z,53.71
2019-03-22T17:14:51.805Z,53.95
2019-03-22T17:17:55.221Z,54.52
2019-03-22T17:20:58.630Z,54.68
2019-03-22T17:24:02.070Z,54.91
2019-03-22T17:27:05.571Z,55.15
2019-03-22T17:30:10.230Z,55.41
2019-03-22T17:33:13.623Z,55.40
2019-03-22T17:36:17.025Z,55.55
2019-03-22T17:39:20.462Z,55.78
2019-03-22T17:42:23.833Z,56.25
2019-03-22T17:45:27.222Z,56.57
2019-03-22T17:48:30.659Z,57.07
2019-03-22T17:51:34.085Z,57.51
2019-03-22T17:54:37.477Z,57.97
2019-03-22T17:57:40.848Z,58.61
2019-03-22T18:00:44.860Z,59.50
2019-03-22T18:03:48.240Z,60.02
2019-03-22T18:06:51.644Z,60.79
2019-03-22T18:09:55.038Z,61.13
2019-03-22T18:12:58.341Z,61.16
2019-03-22T18:16:01.742Z,61.39
2019-03-22T18:19:05.042Z,61.49
2019-03-22T18:22:08.475Z,61.27
2019-03-22T18:25:11.814Z,61.88
2019-03-22T18:28:15.129Z,61.70
2019-03-22T18:31:18.527Z,61.63
2019-03-22T18:34:21.864Z,61.78
2019-03-22T18:37:25.215Z,61.83
2019-03-22T18:40:28.530Z,62.56
2019-03-22T18:43:31.878Z,62.64
2019-03-22T18:46:35.213Z,62.65
2019-03-22T18:49:38.537Z,62.77
2019-03-22T18:52:41.876Z,63.14
2019-03-22T18:55:45.254Z,63.22
2019-03-22T18:58:48.604Z,63.45
2019-03-22T19:01:52.007Z,63.34
2019-03-22T19:04:55.305Z,63.68
2019-03-22T19:07:58.642Z,63.53
2019-03-22T19:11:01.968Z,63.76
2019-03-22T19:14:05.301Z,64.11
2019-03-22T19:17:08.606Z,63.86
2019-03-22T19:20:12.964Z,64.01
2019-03-22T19:23:16.297Z,64.30
2019-03-22T19:26:19.585Z,64.04
2019-03-22T19:29:22.913Z,64.05
2019-03-22T19:32:26.254Z,64.56
2019-03-22T19:35:29.692Z,64.64
2019-03-22T19:38:33.016Z,65.18
2019-03-22T19:41:36.331Z,65.34
2019-03-22T19:44:39.844Z,65.38
2019-03-22T19:47:43.455Z,65.72
2019-03-22T19:50:46.764Z,66.06
2019-03-22T19:53:50.087Z,66.10
2019-03-22T19:56:53.422Z,66.40
2019-03-22T19:59:56.750Z,66.41
2019-03-22T20:03:00.133Z,66.92
2019-03-22T20:06:03.450Z,66.97
2019-03-22T20:09:08.894Z,67.17
2019-03-22T20:12:12.209Z,67.25
2019-03-22T20:15:15.540Z,67.55
2019-03-22T20:18:18.857Z,67.82
2019-03-22T20:21:22.179Z,67.84
2019-03-22T20:24:25.543Z,67.91
2019-03-22T20:27:28.877Z,68.01
2019-03-22T20:30:32.204Z,67.97
2019-03-22T20:33:35.559Z,68.31
2019-03-22T20:36:38.875Z,68.48
2019-03-22T20:39:42.232Z,68.68
2019-03-22T20:42:45.533Z,68.68
2019-03-22T20:45:48.909Z,68.58
2019-03-22T20:48:52.502Z,68.78
2019-03-22T20:51:55.806Z,68.91
2019-03-22T20:54:59.152Z,69.07
2019-03-22T20:58:02.455Z,69.03
2019-03-22T21:01:25.659Z,69.11
2019-03-22T21:04:29.089Z,69.55
2019-03-22T21:07:32.474Z,69.54
2019-03-22T21:10:35.838Z,69.59
2019-03-22T21:13:39.170Z,69.63
2019-03-22T21:16:42.500Z,69.63
2019-03-22T21:19:46.202Z,69.36
2019-03-22T21:22:49.914Z,70.56
2019-03-22T21:25:55.302Z,70.35
2019-03-22T21:28:58.890Z,70.36
2019-03-22T21:32:02.378Z,71.12
2019-03-22T21:35:07.075Z,70.74
2019-03-22T21:38:11.359Z,71.62
2019-03-22T21:41:14.866Z,71.19
2019-03-22T21:44:18.652Z,71.23
2019-03-22T21:47:21.987Z,71.82
2019-03-22T21:50:25.335Z,71.21
2019-03-22T21:53:28.663Z,71.42
2019-03-22T21:56:32.018Z,71.48
2019-03-22T21:59:35.328Z,71.76
2019-03-22T22:02:38.661Z,71.42
2019-03-22T22:05:47.758Z,71.66
2019-03-22T22:08:47.107Z,72.93
2019-03-22T22:11:50.436Z,72.56
2019-03-22T22:14:54.113Z,72.66
2019-03-22T22:17:57.433Z,73.12
2019-03-22T22:21:00.914Z,73.56
2019-03-22T22:24:04.918Z,74.42
2019-03-22T22:27:13.819Z,74.32
2019-03-22T22:30:13.458Z,73.75
2019-03-22T22:33:16.789Z,74.80
2019-03-22T22:36:20.098Z,73.92
2019-03-22T22:39:23.431Z,73.58
2019-03-22T22:42:26.765Z,73.43
2019-03-22T22:45:30.062Z,73.60
2019-03-22T22:48:33.404Z,73.95
2019-03-22T22:51:36.713Z,73.96
2019-03-22T22:54:40.018Z,73.81
2019-03-22T22:57:43.370Z,73.56
2019-03-22T23:00:47.150Z,74.49
2019-03-22T23:03:50.550Z,74.21
2019-03-22T23:06:53.909Z,74.85
2019-03-22T23:09:57.182Z,74.83
2019-03-22T23:13:00.515Z,74.22
2019-03-22T23:16:03.821Z,74.18
2019-03-22T23:19:07.207Z,73.71
2019-03-22T23:22:10.541Z,73.62
2019-03-22T23:25:13.864Z,73.78
2019-03-22T23:28:17.196Z,73.81
2019-03-22T23:31:20.649Z,74.46
2019-03-22T23:34:23.968Z,74.28
2019-03-22T23:37:27.308Z,75.01
2019-03-22T23:40:30.680Z,74.23
2019-03-22T23:43:34.006Z,74.52
2019-03-22T23:46:37.306Z,74.49
2019-03-22T23:49:40.638Z,75.77
2019-03-22T23:52:43.960Z,75.51
2019-03-22T23:55:47.262Z,74.93
2019-03-22T23:58:50.585Z,75.49
